createdAt,value
2023-03-26T00:02:33.819Z,10.60
2023-03-26T00:05:38.586Z,10.50
2023-03-26T00:08:45.084Z,10.50
2023-03-26T00:11:49.245Z,10.50
2023-03-26T00:14:52.805Z,10.40
2023-03-26T00:17:56.440Z,10.40
2023-03-26T00:21:03.996Z,10.40
2023-03-26T00:24:11.880Z,10.50
2023-03-26T00:27:15.924Z,10.50
2023-03-26T00:30:19.573Z,10.50
2023-03-26T00:33:22.837Z,10.50
2023-03-26T00:36:27.774Z,10.50
2023-03-26T00:39:33.945Z,10.50
2023-03-26T00:42:38.039Z,10.50
2023-03-26T00:45:41.238Z,10.50
2023-03-26T00:48:47.528Z,10.60
2023-03-26T00:51:53.060Z,10.60
2023-03-26T00:54:57.075Z,10.60
2023-03-26T00:58:00.370Z,10.50
2023-03-26T01:01:08.102Z,10.60
2023-03-26T01:04:31.825Z,11.40
2023-03-26T01:07:37.317Z,10.70
2023-03-26T01:10:40.918Z,10.70
2023-03-26T01:13:50.547Z,10.80
2023-03-26T01:16:56.483Z,10.70
2023-03-26T01:20:13.328Z,10.70
2023-03-26T01:23:25.696Z,10.70
2023-03-26T01:27:20.922Z,10.70
2023-03-26T01:30:34.891Z,10.80
2023-03-26T01:33:47.160Z,10.80
2023-03-26T01:37:04.631Z,10.70
2023-03-26T01:40:16.340Z,10.80
2023-03-26T01:43:33.332Z,10.80
2023-03-26T01:46:37.374Z,10.80
2023-03-26T01:49:40.549Z,10.70
2023-03-26T01:52:43.848Z,10.10
2023-03-26T01:56:02.483Z,10.80
2023-03-26T01:59:23.887Z,10.80
2023-03-26T02:02:38.691Z,10.80
2023-03-26T02:05:51.257Z,10.80
2023-03-26T02:09:00.934Z,10.80
2023-03-26T02:12:07.582Z,10.80
2023-03-26T02:15:13.563Z,10.90
2023-03-26T02:18:16.794Z,10.80
2023-03-26T02:21:23.530Z,10.90
2023-03-26T02:24:27.343Z,10.80
2023-03-26T02:27:30.976Z,10.90
2023-03-26T02:30:35.586Z,10.90
2023-03-26T02:33:39.673Z,10.80
2023-03-26T02:36:44.003Z,10.80
2023-03-26T02:39:47.345Z,10.80
2023-03-26T02:42:51.211Z,10.80
2023-03-26T02:45:56.325Z,10.70
2023-03-26T02:49:00.177Z,10.60
2023-03-26T02:52:06.639Z,10.60
2023-03-26T02:55:11.214Z,10.60
2023-03-26T02:58:17.644Z,10.60
2023-03-26T03:01:22.812Z,10.50
2023-03-26T03:04:26.800Z,10.50
2023-03-26T03:07:30.285Z,10.50
2023-03-26T03:10:33.790Z,10.40
2023-03-26T03:13:37.177Z,10.40
2023-03-26T03:16:42.142Z,10.30
2023-03-26T03:19:45.847Z,10.30
2023-03-26T03:22:49.031Z,10.20
2023-03-26T03:25:52.857Z,10.20
2023-03-26T03:28:57.962Z,10.10
2023-03-26T03:32:03.574Z,10.10
2023-03-26T03:35:07.964Z,10.10
2023-03-26T03:38:12.197Z,10.00
2023-03-26T03:41:17.711Z,10.00
2023-03-26T03:44:20.932Z,9.90
2023-03-26T03:47:25.755Z,9.90
2023-03-26T03:50:29.131Z,9.80
2023-03-26T03:53:36.879Z,9.80
2023-03-26T03:56:40.355Z,9.80
2023-03-26T03:59:47.583Z,9.80
2023-03-26T04:02:54.748Z,9.70
2023-03-26T04:05:58.435Z,9.70
2023-03-26T04:09:02.023Z,9.60
2023-03-26T04:12:05.923Z,9.70
2023-03-26T04:15:09.978Z,9.70
2023-03-26T04:18:15.241Z,9.60
2023-03-26T04:21:19.364Z,9.70
2023-03-26T04:24:24.685Z,9.60
2023-03-26T04:27:35.448Z,9.60
2023-03-26T04:30:42.354Z,9.60
2023-03-26T04:33:48.376Z,9.60
2023-03-26T04:36:54.386Z,9.60
2023-03-26T04:39:57.732Z,9.70
2023-03-26T04:43:02.675Z,9.60
2023-03-26T04:46:07.878Z,9.60
2023-03-26T04:49:12.728Z,9.60
2023-03-26T04:52:17.092Z,9.50
2023-03-26T04:55:27.106Z,9.50
2023-03-26T04:58:32.942Z,9.40
2023-03-26T05:01:37.991Z,9.40
2023-03-26T05:04:44.014Z,9.40
2023-03-26T05:07:47.462Z,9.30
2023-03-26T05:10:51.175Z,9.20
2023-03-26T05:13:54.575Z,9.20
2023-03-26T05:16:58.160Z,9.10
2023-03-26T05:20:04.418Z,9.10
2023-03-26T05:23:08.099Z,9.10
2023-03-26T05:26:11.940Z,9.10
2023-03-26T05:29:18.439Z,9.00
2023-03-26T05:32:21.623Z,9.00
2023-03-26T05:35:26.814Z,9.00
2023-03-26T05:38:31.359Z,9.00
2023-03-26T05:41:35.087Z,9.00
2023-03-26T05:44:38.367Z,8.90
2023-03-26T05:47:41.873Z,9.00
2023-03-26T05:50:49.080Z,9.00
2023-03-26T05:53:52.680Z,9.00
2023-03-26T05:56:57.335Z,9.00
2023-03-26T06:00:00.601Z,9.00
2023-03-26T06:03:03.922Z,9.10
2023-03-26T06:06:15.457Z,9.00
2023-03-26T06:09:18.873Z,9.00
2023-03-26T06:12:22.296Z,9.80
2023-03-26T06:15:25.872Z,9.00
2023-03-26T06:18:29.122Z,8.90
2023-03-26T06:21:34.209Z,8.90
2023-03-26T06:24:37.554Z,8.90
2023-03-26T06:27:40.795Z,8.90
2023-03-26T06:30:44.733Z,8.90
2023-03-26T06:33:49.210Z,8.90
2023-03-26T06:36:53.882Z,8.90
2023-03-26T06:39:57.296Z,8.90
2023-03-26T06:43:07.869Z,8.90
2023-03-26T06:46:14.066Z,9.00
2023-03-26T06:49:17.507Z,9.00
2023-03-26T06:52:22.115Z,9.00
2023-03-26T06:55:25.939Z,9.10
2023-03-26T06:58:29.341Z,9.20
2023-03-26T07:01:33.018Z,9.20
2023-03-26T07:04:36.790Z,9.30
2023-03-26T07:07:46.207Z,9.40
2023-03-26T07:10:51.335Z,9.50
2023-03-26T07:13:56.377Z,9.50
2023-03-26T07:17:00.277Z,9.70
2023-03-26T07:20:03.850Z,9.60
2023-03-26T07:23:11.391Z,9.60
2023-03-26T07:26:28.299Z,9.60
2023-03-26T07:29:38.700Z,9.60
2023-03-26T07:32:54.069Z,9.60
2023-03-26T07:36:16.333Z,9.60
2023-03-26T07:39:43.965Z,9.80
2023-03-26T07:43:04.345Z,9.80
2023-03-26T07:46:13.931Z,10.10
2023-03-26T07:49:20.515Z,10.20
2023-03-26T07:52:24.671Z,10.30
2023-03-26T07:55:30.721Z,10.40
2023-03-26T07:59:06.754Z,10.50
2023-03-26T08:02:41.453Z,10.60
2023-03-26T08:05:54.572Z,10.70
2023-03-26T08:09:08.928Z,10.80
2023-03-26T08:12:24.047Z,11.00
2023-03-26T08:15:34.424Z,11.00
2023-03-26T08:18:50.454Z,11.10
2023-03-26T08:21:59.851Z,11.10
2023-03-26T08:25:21.007Z,11.10
2023-03-26T08:28:48.680Z,11.10
2023-03-26T08:31:52.780Z,11.10
2023-03-26T08:34:57.438Z,11.00
2023-03-26T08:38:00.813Z,11.00
2023-03-26T08:42:03.185Z,11.00
2023-03-26T08:46:15.449Z,10.90
2023-03-26T08:50:15.436Z,10.90
2023-03-26T08:54:04.372Z,11.00
2023-03-26T08:57:44.253Z,11.00
2023-03-26T09:01:27.109Z,11.00
2023-03-26T09:05:17.071Z,11.00
2023-03-26T09:09:19.077Z,11.00
2023-03-26T09:13:21.328Z,11.10
2023-03-26T09:17:16.200Z,11.10
2023-03-26T09:21:12.702Z,11.20
2023-03-26T09:25:01.121Z,11.20
2023-03-26T09:28:50.305Z,11.40
2023-03-26T09:32:35.407Z,12.20
2023-03-26T09:36:10.827Z,11.80
2023-03-26T09:39:31.229Z,11.90
2023-03-26T09:42:45.835Z,11.90
2023-03-26T09:46:04.551Z,11.90
2023-03-26T09:49:39.144Z,12.00
2023-03-26T09:53:07.757Z,12.10
2023-03-26T09:56:26.948Z,12.10
2023-03-26T10:00:10.373Z,12.10
2023-03-26T10:03:31.612Z,12.10
2023-03-26T10:06:54.751Z,12.10
2023-03-26T10:10:08.894Z,12.10
2023-03-26T10:13:26.746Z,12.10
2023-03-26T10:16:47.212Z,12.20
2023-03-26T10:20:17.692Z,12.10
2023-03-26T10:24:00.612Z,12.10
2023-03-26T10:27:22.078Z,12.10
2023-03-26T10:31:31.798Z,12.20
2023-03-26T10:35:03.425Z,12.10
2023-03-26T10:38:22.602Z,12.10
2023-03-26T10:41:42.257Z,12.00
2023-03-26T10:45:14.066Z,11.90
2023-03-26T10:48:34.860Z,12.00
2023-03-26T10:51:51.412Z,12.10
2023-03-26T10:55:01.136Z,12.20
2023-03-26T10:58:18.563Z,12.20
2023-03-26T11:01:38.857Z,12.20
2023-03-26T11:04:55.945Z,12.00
2023-03-26T11:08:07.340Z,11.80
2023-03-26T11:11:25.047Z,11.50
2023-03-26T11:14:36.567Z,11.20
2023-03-26T11:17:52.988Z,11.00
2023-03-26T11:21:19.451Z,10.80
2023-03-26T11:24:59.742Z,11.00
2023-03-26T11:28:27.983Z,10.60
2023-03-26T11:31:49.152Z,10.40
2023-03-26T11:35:02.992Z,10.30
2023-03-26T11:38:14.479Z,10.30
2023-03-26T11:41:23.673Z,10.20
2023-03-26T11:44:34.078Z,10.10
2023-03-26T11:47:45.884Z,10.00
2023-03-26T11:50:55.644Z,10.00
2023-03-26T11:54:00.077Z,9.90
2023-03-26T11:57:07.402Z,9.90
2023-03-26T12:00:19.497Z,9.80
2023-03-26T12:03:25.131Z,9.70
2023-03-26T12:06:29.115Z,9.60
2023-03-26T12:09:32.679Z,9.50
2023-03-26T12:12:42.264Z,9.50
2023-03-26T12:15:46.080Z,9.50
2023-03-26T12:19:03.603Z,9.40
2023-03-26T12:22:13.132Z,9.40
2023-03-26T12:25:19.617Z,9.40
2023-03-26T12:28:23.436Z,9.30
2023-03-26T12:31:30.561Z,9.30
2023-03-26T12:34:38.422Z,9.20
2023-03-26T12:37:44.552Z,9.10
2023-03-26T12:40:48.684Z,9.20
2023-03-26T12:44:49.666Z,8.80
2023-03-26T12:48:00.199Z,9.20
2023-03-26T12:51:10.426Z,8.70
2023-03-26T12:54:46.123Z,9.20
2023-03-26T12:58:13.771Z,9.10
2023-03-26T13:01:34.739Z,9.00
2023-03-26T13:05:06.084Z,9.20
2023-03-26T13:08:47.852Z,8.80
2023-03-26T13:12:09.140Z,8.80
2023-03-26T13:15:28.555Z,8.70
2023-03-26T13:18:48.605Z,8.60
2023-03-26T13:22:12.405Z,8.50
2023-03-26T13:25:33.233Z,8.50
2023-03-26T13:28:49.442Z,8.50
2023-03-26T13:32:05.085Z,8.60
2023-03-26T13:35:28.565Z,8.50
2023-03-26T13:38:59.126Z,8.40
2023-03-26T13:42:23.432Z,8.30
2023-03-26T13:45:45.846Z,8.20
2023-03-26T13:48:55.388Z,8.10
2023-03-26T13:52:05.904Z,8.00
2023-03-26T13:55:27.244Z,8.00
2023-03-26T13:58:39.760Z,7.90
2023-03-26T14:01:52.518Z,7.90
2023-03-26T14:05:04.740Z,7.90
2023-03-26T14:08:21.156Z,7.50
2023-03-26T14:11:40.093Z,7.90
2023-03-26T14:14:54.332Z,7.90
2023-03-26T14:18:11.141Z,7.90
2023-03-26T14:21:50.666Z,7.90
2023-03-26T14:25:11.714Z,8.00
2023-03-26T14:28:57.479Z,8.00
2023-03-26T14:32:24.094Z,8.00
2023-03-26T14:35:38.717Z,8.00
2023-03-26T14:39:18.862Z,8.00
2023-03-26T14:42:34.840Z,7.90
2023-03-26T14:46:14.486Z,7.90
2023-03-26T14:50:14.107Z,8.00
2023-03-26T14:53:30.044Z,8.00
2023-03-26T14:56:53.103Z,8.00
2023-03-26T15:01:09.300Z,8.10
2023-03-26T15:05:06.961Z,8.10
2023-03-26T15:09:31.513Z,8.30
2023-03-26T15:13:03.736Z,8.30
2023-03-26T15:16:29.483Z,8.20
2023-03-26T15:20:26.094Z,8.20
2023-03-26T15:24:26.101Z,8.10
2023-03-26T15:27:58.608Z,8.00
2023-03-26T15:31:41.070Z,8.00
2023-03-26T15:35:33.508Z,8.00
2023-03-26T15:39:30.091Z,8.10
2023-03-26T15:42:47.952Z,8.20
2023-03-26T15:46:04.804Z,8.20
2023-03-26T15:49:16.849Z,8.20
2023-03-26T15:52:32.356Z,8.20
2023-03-26T15:55:53.716Z,8.30
2023-03-26T15:59:07.590Z,8.30
2023-03-26T16:02:28.263Z,8.30
2023-03-26T16:05:46.466Z,8.30
2023-03-26T16:09:08.126Z,8.20
2023-03-26T16:12:35.845Z,8.10
2023-03-26T16:15:39.771Z,7.90
2023-03-26T16:18:44.990Z,7.80
2023-03-26T16:21:58.559Z,7.60
2023-03-26T16:25:29.237Z,6.90
2023-03-26T16:28:36.971Z,7.30
2023-03-26T16:32:12.752Z,7.20
2023-03-26T16:35:42.858Z,7.10
2023-03-26T16:39:10.746Z,7.00
2023-03-26T16:42:38.643Z,7.00
2023-03-26T16:45:56.442Z,6.90
2023-03-26T16:49:17.580Z,6.80
2023-03-26T16:52:42.782Z,6.80
2023-03-26T16:55:56.097Z,6.70
2023-03-26T16:59:08.183Z,6.70
2023-03-26T17:02:26.703Z,6.70
2023-03-26T17:05:38.587Z,6.60
2023-03-26T17:08:58.716Z,6.60
2023-03-26T17:12:14.299Z,6.50
2023-03-26T17:15:41.575Z,6.50
2023-03-26T17:18:57.605Z,6.40
2023-03-26T17:22:10.562Z,6.30
2023-03-26T17:25:29.763Z,6.10
2023-03-26T17:29:06.012Z,6.20
2023-03-26T17:32:14.591Z,6.20
2023-03-26T17:35:37.862Z,6.20
2023-03-26T17:39:05.055Z,6.20
2023-03-26T17:42:28.823Z,6.10
2023-03-26T17:45:37.199Z,6.10
2023-03-26T17:48:47.126Z,6.00
2023-03-26T17:51:59.456Z,5.90
2023-03-26T17:55:04.673Z,5.80
2023-03-26T17:58:24.348Z,5.80
2023-03-26T18:01:35.992Z,5.70
2023-03-26T18:04:46.193Z,5.70
2023-03-26T18:08:50.716Z,5.60
2023-03-26T18:12:23.190Z,5.50
2023-03-26T18:15:50.669Z,5.40
2023-03-26T18:19:00.217Z,5.40
2023-03-26T18:22:07.434Z,5.30
2023-03-26T18:25:26.361Z,5.20
2023-03-26T18:28:41.214Z,5.10
2023-03-26T18:31:46.917Z,5.10
2023-03-26T18:34:57.451Z,5.00
2023-03-26T18:38:01.073Z,4.90
2023-03-26T18:41:08.118Z,4.90
2023-03-26T18:44:17.673Z,4.80
2023-03-26T18:47:22.318Z,4.80
2023-03-26T18:50:30.114Z,4.80
2023-03-26T18:53:40.154Z,4.80
2023-03-26T18:56:49.209Z,4.80
2023-03-26T18:59:55.886Z,4.80
2023-03-26T19:03:07.856Z,4.00
2023-03-26T19:06:14.691Z,4.80
2023-03-26T19:09:31.152Z,4.80
2023-03-26T19:12:39.565Z,4.80
2023-03-26T19:15:46.466Z,4.70
2023-03-26T19:18:51.081Z,4.80
2023-03-26T19:21:54.684Z,4.70
2023-03-26T19:25:02.717Z,4.80
2023-03-26T19:28:17.373Z,4.50
2023-03-26T19:31:26.394Z,4.80
2023-03-26T19:34:36.669Z,4.80
2023-03-26T19:37:54.290Z,4.90
2023-03-26T19:40:59.352Z,4.90
2023-03-26T19:44:20.882Z,4.90
2023-03-26T19:47:46.140Z,4.90
2023-03-26T19:51:04.744Z,4.90
2023-03-26T19:54:16.998Z,5.00
2023-03-26T19:57:20.361Z,5.00
2023-03-26T20:00:25.345Z,5.30
2023-03-26T20:03:31.804Z,5.40
2023-03-26T20:06:43.081Z,5.10
2023-03-26T20:09:47.324Z,5.20
2023-03-26T20:12:55.735Z,5.20
2023-03-26T20:16:11.845Z,5.30
2023-03-26T20:19:16.756Z,5.20
2023-03-26T20:22:21.190Z,5.30
2023-03-26T20:25:31.003Z,5.30
2023-03-26T20:28:42.430Z,5.30
2023-03-26T20:31:53.076Z,5.30
2023-03-26T20:34:57.791Z,5.30
2023-03-26T20:38:01.167Z,5.30
2023-03-26T20:41:04.506Z,5.40
2023-03-26T20:44:15.456Z,5.40
2023-03-26T20:47:20.435Z,5.30
2023-03-26T20:50:26.244Z,5.40
2023-03-26T20:53:30.611Z,5.30
2023-03-26T20:56:37.916Z,5.30
2023-03-26T20:59:41.988Z,5.30
2023-03-26T21:02:47.927Z,5.40
2023-03-26T21:05:52.693Z,5.40
2023-03-26T21:08:56.893Z,5.40
2023-03-26T21:12:04.110Z,5.40
2023-03-26T21:15:22.444Z,5.40
2023-03-26T21:18:29.845Z,5.40
2023-03-26T21:21:59.660Z,5.40
2023-03-26T21:25:19.856Z,5.40
2023-03-26T21:28:39.824Z,5.30
2023-03-26T21:31:46.796Z,5.40
2023-03-26T21:38:00.476Z,5.40
2023-03-26T21:41:04.969Z,5.40
2023-03-26T21:44:08.906Z,5.40
2023-03-26T21:47:13.488Z,5.40
2023-03-26T21:50:21.806Z,5.40
2023-03-26T21:53:26.082Z,5.10
2023-03-26T21:56:46.700Z,5.40
2023-03-26T22:00:04.131Z,5.50
2023-03-26T22:03:21.613Z,5.40
2023-03-26T22:06:32.110Z,6.50
2023-03-26T22:09:36.740Z,5.40
2023-03-26T22:12:40.369Z,5.40
2023-03-26T22:15:44.946Z,5.40
2023-03-26T22:18:48.181Z,5.40
2023-03-26T22:21:54.344Z,5.40
2023-03-26T22:24:57.865Z,5.40
2023-03-26T22:28:01.130Z,5.40
2023-03-26T22:31:08.400Z,5.40
2023-03-26T22:34:12.455Z,5.40
2023-03-26T22:37:17.354Z,5.40
2023-03-26T22:40:21.254Z,5.30
2023-03-26T22:43:24.667Z,5.40
2023-03-26T22:46:28.710Z,5.40
2023-03-26T22:49:32.335Z,5.40
2023-03-26T22:52:39.869Z,5.30
2023-03-26T22:55:43.789Z,5.30
2023-03-26T22:58:48.414Z,5.30
2023-03-26T23:01:52.412Z,5.50
2023-03-26T23:04:55.915Z,5.30
2023-03-26T23:08:00.977Z,5.30
2023-03-26T23:11:09.445Z,5.30
2023-03-26T23:14:12.807Z,5.20
2023-03-26T23:17:17.534Z,5.20
2023-03-26T23:20:20.943Z,5.20
2023-03-26T23:23:28.837Z,5.10
2023-03-26T23:26:43.895Z,5.10
2023-03-26T23:29:51.232Z,5.10
2023-03-26T23:32:54.855Z,5.10
2023-03-26T23:36:00.740Z,5.00
2023-03-26T23:39:05.664Z,5.00
2023-03-26T23:42:08.873Z,5.00
2023-03-26T23:45:13.446Z,5.00
2023-03-26T23:48:22.154Z,5.00
2023-03-26T23:51:25.839Z,5.00
2023-03-26T23:54:30.498Z,5.00
2023-03-26T23:57:33.839Z,5.00
